sensor_id;sensor_type;location;lat;lon;timestamp;P1;durP1;ratioP1;P2;durP2;ratioP2
25213;SDS011;13160;51.834;4.706;2022-12-26T00:01:29;78.88;;;31.52;;
25213;SDS011;13160;51.834;4.706;2022-12-26T00:03:59;80.88;;;31.80;;
25213;SDS011;13160;51.834;4.706;2022-12-26T00:06:29;76.78;;;32.40;;
25213;SDS011;13160;51.834;4.706;2022-12-26T00:08:59;82.25;;;32.35;;
25213;SDS011;13160;51.834;4.706;2022-12-26T00:11:29;83.28;;;33.30;;
25213;SDS011;13160;51.834;4.706;2022-12-26T00:13:59;85.93;;;34.33;;
25213;SDS011;13160;51.834;4.706;2022-12-26T00:16:30;82.00;;;33.90;;
25213;SDS011;13160;51.834;4.706;2022-12-26T00:19:00;80.80;;;33.72;;
25213;SDS011;13160;51.834;4.706;2022-12-26T00:21:30;76.68;;;32.17;;
25213;SDS011;13160;51.834;4.706;2022-12-26T00:23:59;82.68;;;32.85;;
25213;SDS011;13160;51.834;4.706;2022-12-26T00:26:28;75.82;;;32.80;;
25213;SDS011;13160;51.834;4.706;2022-12-26T00:29:00;74.38;;;33.00;;
25213;SDS011;13160;51.834;4.706;2022-12-26T00:31:29;81.10;;;35.10;;
25213;SDS011;13160;51.834;4.706;2022-12-26T00:34:00;77.93;;;33.55;;
25213;SDS011;13160;51.834;4.706;2022-12-26T00:36:31;72.38;;;33.42;;
25213;SDS011;13160;51.834;4.706;2022-12-26T00:39:00;73.70;;;33.10;;
25213;SDS011;13160;51.834;4.706;2022-12-26T00:41:30;71.60;;;32.97;;
25213;SDS011;13160;51.834;4.706;2022-12-26T00:43:59;75.75;;;33.28;;
25213;SDS011;13160;51.834;4.706;2022-12-26T00:46:28;72.03;;;33.20;;
25213;SDS011;13160;51.834;4.706;2022-12-26T00:48:57;78.53;;;35.15;;
25213;SDS011;13160;51.834;4.706;2022-12-26T00:51:27;67.85;;;33.00;;
25213;SDS011;13160;51.834;4.706;2022-12-26T00:53:55;72.22;;;34.95;;
25213;SDS011;13160;51.834;4.706;2022-12-26T00:56:24;67.10;;;34.15;;
25213;SDS011;13160;51.834;4.706;2022-12-26T00:58:52;67.07;;;32.80;;
25213;SDS011;13160;51.834;4.706;2022-12-26T01:01:21;63.03;;;32.47;;
25213;SDS011;13160;51.834;4.706;2022-12-26T01:03:50;66.45;;;34.20;;
25213;SDS011;13160;51.834;4.706;2022-12-26T01:06:19;63.80;;;33.78;;
25213;SDS011;13160;51.834;4.706;2022-12-26T01:08:48;62.25;;;33.38;;
25213;SDS011;13160;51.834;4.706;2022-12-26T01:11:17;63.80;;;32.42;;
25213;SDS011;13160;51.834;4.706;2022-12-26T01:14:06;57.15;;;29.95;;
25213;SDS011;13160;51.834;4.706;2022-12-26T01:16:37;59.78;;;32.20;;
25213;SDS011;13160;51.834;4.706;2022-12-26T01:19:06;61.50;;;32.88;;
25213;SDS011;13160;51.834;4.706;2022-12-26T01:21:35;60.75;;;32.67;;
25213;SDS011;13160;51.834;4.706;2022-12-26T01:24:05;60.72;;;33.17;;
25213;SDS011;13160;51.834;4.706;2022-12-26T01:26:34;60.70;;;32.22;;
25213;SDS011;13160;51.834;4.706;2022-12-26T01:29:02;61.42;;;32.13;;
25213;SDS011;13160;51.834;4.706;2022-12-26T01:31:30;56.90;;;31.40;;
25213;SDS011;13160;51.834;4.706;2022-12-26T01:33:59;65.07;;;33.33;;
25213;SDS011;13160;51.834;4.706;2022-12-26T01:36:27;61.28;;;33.55;;
25213;SDS011;13160;51.834;4.706;2022-12-26T01:38:55;60.25;;;32.47;;
25213;SDS011;13160;51.834;4.706;2022-12-26T01:41:25;61.33;;;32.92;;
25213;SDS011;13160;51.834;4.706;2022-12-26T01:43:56;62.83;;;32.17;;
25213;SDS011;13160;51.834;4.706;2022-12-26T01:46:29;63.10;;;31.52;;
25213;SDS011;13160;51.834;4.706;2022-12-26T01:49:05;61.72;;;31.42;;
25213;SDS011;13160;51.834;4.706;2022-12-26T01:51:40;59.22;;;30.13;;
25213;SDS011;13160;51.834;4.706;2022-12-26T01:54:13;55.92;;;29.58;;
25213;SDS011;13160;51.834;4.706;2022-12-26T01:57:03;62.45;;;30.52;;
25213;SDS011;13160;51.834;4.706;2022-12-26T01:59:37;51.83;;;29.55;;
25213;SDS011;13160;51.834;4.706;2022-12-26T02:02:07;53.63;;;29.05;;
25213;SDS011;13160;51.834;4.706;2022-12-26T02:04:38;47.35;;;28.48;;
25213;SDS011;13160;51.834;4.706;2022-12-26T02:07:30;50.10;;;27.92;;
25213;SDS011;13160;51.834;4.706;2022-12-26T02:09:59;49.42;;;27.42;;
25213;SDS011;13160;51.834;4.706;2022-12-26T02:12:30;44.88;;;26.95;;
25213;SDS011;13160;51.834;4.706;2022-12-26T02:15:06;45.38;;;26.75;;
25213;SDS011;13160;51.834;4.706;2022-12-26T02:17:37;42.80;;;24.90;;
25213;SDS011;13160;51.834;4.706;2022-12-26T02:20:12;47.38;;;26.35;;
25213;SDS011;13160;51.834;4.706;2022-12-26T02:33:02;49.33;;;25.60;;
25213;SDS011;13160;51.834;4.706;2022-12-26T02:35:57;52.45;;;27.80;;
25213;SDS011;13160;51.834;4.706;2022-12-26T02:38:56;50.85;;;27.48;;
25213;SDS011;13160;51.834;4.706;2022-12-26T02:41:56;53.22;;;27.30;;
25213;SDS011;13160;51.834;4.706;2022-12-26T02:44:45;51.47;;;27.13;;
25213;SDS011;13160;51.834;4.706;2022-12-26T02:47:43;50.38;;;26.30;;
25213;SDS011;13160;51.834;4.706;2022-12-26T02:50:23;48.75;;;26.33;;
25213;SDS011;13160;51.834;4.706;2022-12-26T02:53:18;48.15;;;25.55;;
25213;SDS011;13160;51.834;4.706;2022-12-26T02:56:17;45.22;;;24.27;;
25213;SDS011;13160;51.834;4.706;2022-12-26T02:59:11;46.35;;;24.02;;
25213;SDS011;13160;51.834;4.706;2022-12-26T03:02:23;40.55;;;22.75;;
25213;SDS011;13160;51.834;4.706;2022-12-26T03:05:17;39.05;;;22.35;;
25213;SDS011;13160;51.834;4.706;2022-12-26T03:08:11;41.33;;;23.45;;
25213;SDS011;13160;51.834;4.706;2022-12-26T03:11:05;39.53;;;23.70;;
25213;SDS011;13160;51.834;4.706;2022-12-26T03:13:52;42.22;;;23.40;;
25213;SDS011;13160;51.834;4.706;2022-12-26T03:16:22;40.42;;;22.35;;
25213;SDS011;13160;51.834;4.706;2022-12-26T03:19:09;35.72;;;21.05;;
25213;SDS011;13160;51.834;4.706;2022-12-26T03:21:42;31.75;;;19.42;;
25213;SDS011;13160;51.834;4.706;2022-12-26T03:24:13;35.10;;;20.35;;
25213;SDS011;13160;51.834;4.706;2022-12-26T03:26:45;35.78;;;19.85;;
25213;SDS011;13160;51.834;4.706;2022-12-26T03:29:18;33.63;;;17.75;;
25213;SDS011;13160;51.834;4.706;2022-12-26T03:32:07;29.27;;;16.80;;
25213;SDS011;13160;51.834;4.706;2022-12-26T03:34:40;30.25;;;17.50;;
25213;SDS011;13160;51.834;4.706;2022-12-26T03:37:28;27.52;;;16.42;;
25213;SDS011;13160;51.834;4.706;2022-12-26T03:43:42;25.33;;;13.52;;
25213;SDS011;13160;51.834;4.706;2022-12-26T03:46:47;26.10;;;14.38;;
25213;SDS011;13160;51.834;4.706;2022-12-26T03:49:46;24.60;;;12.45;;
25213;SDS011;13160;51.834;4.706;2022-12-26T03:52:41;20.25;;;11.60;;
25213;SDS011;13160;51.834;4.706;2022-12-26T03:55:34;25.83;;;11.98;;
25213;SDS011;13160;51.834;4.706;2022-12-26T03:58:31;20.80;;;11.50;;
25213;SDS011;13160;51.834;4.706;2022-12-26T04:01:21;24.20;;;10.88;;
25213;SDS011;13160;51.834;4.706;2022-12-26T04:04:12;18.50;;;9.95;;
25213;SDS011;13160;51.834;4.706;2022-12-26T04:07:00;18.95;;;9.38;;
25213;SDS011;13160;51.834;4.706;2022-12-26T04:09:54;19.90;;;9.88;;
25213;SDS011;13160;51.834;4.706;2022-12-26T04:12:46;16.95;;;8.85;;
25213;SDS011;13160;51.834;4.706;2022-12-26T04:15:36;18.85;;;9.73;;
25213;SDS011;13160;51.834;4.706;2022-12-26T04:18:30;15.02;;;8.70;;
25213;SDS011;13160;51.834;4.706;2022-12-26T04:21:25;14.50;;;8.10;;
25213;SDS011;13160;51.834;4.706;2022-12-26T04:24:17;14.40;;;8.68;;
25213;SDS011;13160;51.834;4.706;2022-12-26T04:27:10;17.13;;;9.23;;
25213;SDS011;13160;51.834;4.706;2022-12-26T04:30:03;15.95;;;8.68;;
25213;SDS011;13160;51.834;4.706;2022-12-26T04:32:52;20.60;;;8.23;;
25213;SDS011;13160;51.834;4.706;2022-12-26T04:35:45;16.75;;;7.85;;
25213;SDS011;13160;51.834;4.706;2022-12-26T04:38:35;14.02;;;8.20;;
25213;SDS011;13160;51.834;4.706;2022-12-26T04:41:26;14.65;;;8.20;;
25213;SDS011;13160;51.834;4.706;2022-12-26T04:44:16;17.42;;;8.07;;
25213;SDS011;13160;51.834;4.706;2022-12-26T04:46:48;15.50;;;8.23;;
25213;SDS011;13160;51.834;4.706;2022-12-26T04:49:19;15.18;;;7.90;;
25213;SDS011;13160;51.834;4.706;2022-12-26T04:52:06;17.27;;;8.63;;
25213;SDS011;13160;51.834;4.706;2022-12-26T04:54:36;14.27;;;8.48;;
25213;SDS011;13160;51.834;4.706;2022-12-26T04:57:05;14.13;;;8.43;;
25213;SDS011;13160;51.834;4.706;2022-12-26T04:59:35;16.60;;;8.55;;
25213;SDS011;13160;51.834;4.706;2022-12-26T05:02:03;18.38;;;8.95;;
25213;SDS011;13160;51.834;4.706;2022-12-26T05:04:50;14.13;;;8.07;;
25213;SDS011;13160;51.834;4.706;2022-12-26T05:07:36;15.68;;;8.70;;
25213;SDS011;13160;51.834;4.706;2022-12-26T05:10:22;16.02;;;8.40;;
25213;SDS011;13160;51.834;4.706;2022-12-26T05:12:52;17.83;;;7.75;;
25213;SDS011;13160;51.834;4.706;2022-12-26T05:15:23;14.25;;;7.45;;
25213;SDS011;13160;51.834;4.706;2022-12-26T05:17:51;12.20;;;7.63;;
25213;SDS011;13160;51.834;4.706;2022-12-26T05:20:37;16.70;;;8.38;;
25213;SDS011;13160;51.834;4.706;2022-12-26T05:23:24;13.35;;;7.07;;
25213;SDS011;13160;51.834;4.706;2022-12-26T05:26:13;13.27;;;8.07;;
25213;SDS011;13160;51.834;4.706;2022-12-26T05:29:02;12.70;;;7.60;;
25213;SDS011;13160;51.834;4.706;2022-12-26T05:31:32;12.35;;;7.80;;
25213;SDS011;13160;51.834;4.706;2022-12-26T05:34:02;17.58;;;8.50;;
25213;SDS011;13160;51.834;4.706;2022-12-26T05:36:34;12.77;;;8.60;;
25213;SDS011;13160;51.834;4.706;2022-12-26T05:39:05;14.45;;;8.13;;
25213;SDS011;13160;51.834;4.706;2022-12-26T05:41:35;13.75;;;8.30;;
25213;SDS011;13160;51.834;4.706;2022-12-26T05:44:03;11.60;;;7.90;;
25213;SDS011;13160;51.834;4.706;2022-12-26T05:46:34;13.25;;;7.95;;
25213;SDS011;13160;51.834;4.706;2022-12-26T05:49:03;13.85;;;7.78;;
25213;SDS011;13160;51.834;4.706;2022-12-26T05:51:32;14.10;;;7.97;;
25213;SDS011;13160;51.834;4.706;2022-12-26T05:54:01;12.15;;;8.00;;
25213;SDS011;13160;51.834;4.706;2022-12-26T05:56:31;13.80;;;7.25;;
25213;SDS011;13160;51.834;4.706;2022-12-26T05:58:59;15.52;;;7.97;;
25213;SDS011;13160;51.834;4.706;2022-12-26T06:01:28;15.27;;;7.53;;
25213;SDS011;13160;51.834;4.706;2022-12-26T06:03:58;12.05;;;7.60;;
25213;SDS011;13160;51.834;4.706;2022-12-26T06:06:27;12.93;;;6.95;;
25213;SDS011;13160;51.834;4.706;2022-12-26T06:08:56;15.30;;;7.65;;
25213;SDS011;13160;51.834;4.706;2022-12-26T06:11:24;12.05;;;6.88;;
25213;SDS011;13160;51.834;4.706;2022-12-26T06:13:53;13.75;;;7.30;;
25213;SDS011;13160;51.834;4.706;2022-12-26T06:16:22;16.92;;;6.40;;
25213;SDS011;13160;51.834;4.706;2022-12-26T06:18:51;17.48;;;7.78;;
25213;SDS011;13160;51.834;4.706;2022-12-26T06:21:25;15.15;;;6.57;;
25213;SDS011;13160;51.834;4.706;2022-12-26T06:23:53;11.15;;;6.72;;
25213;SDS011;13160;51.834;4.706;2022-12-26T06:26:21;11.95;;;6.57;;
25213;SDS011;13160;51.834;4.706;2022-12-26T06:28:50;17.10;;;6.65;;
25213;SDS011;13160;51.834;4.706;2022-12-26T06:31:19;14.55;;;6.43;;
25213;SDS011;13160;51.834;4.706;2022-12-26T06:33:50;16.83;;;6.70;;
25213;SDS011;13160;51.834;4.706;2022-12-26T06:36:25;11.77;;;6.30;;
25213;SDS011;13160;51.834;4.706;2022-12-26T06:38:54;13.52;;;6.28;;
25213;SDS011;13160;51.834;4.706;2022-12-26T06:41:24;13.43;;;6.10;;
25213;SDS011;13160;51.834;4.706;2022-12-26T06:43:52;11.85;;;6.32;;
25213;SDS011;13160;51.834;4.706;2022-12-26T06:46:23;8.77;;;5.75;;
25213;SDS011;13160;51.834;4.706;2022-12-26T06:48:52;12.07;;;5.13;;
25213;SDS011;13160;51.834;4.706;2022-12-26T06:51:22;12.70;;;5.53;;
25213;SDS011;13160;51.834;4.706;2022-12-26T06:53:53;14.00;;;6.13;;
25213;SDS011;13160;51.834;4.706;2022-12-26T06:56:22;10.70;;;5.30;;
25213;SDS011;13160;51.834;4.706;2022-12-26T06:58:52;18.10;;;6.15;;
25213;SDS011;13160;51.834;4.706;2022-12-26T07:01:22;13.63;;;5.20;;
25213;SDS011;13160;51.834;4.706;2022-12-26T07:03:52;11.32;;;5.75;;
25213;SDS011;13160;51.834;4.706;2022-12-26T07:06:22;11.68;;;5.07;;
25213;SDS011;13160;51.834;4.706;2022-12-26T07:08:55;10.70;;;5.32;;
25213;SDS011;13160;51.834;4.706;2022-12-26T07:11:26;9.63;;;5.10;;
25213;SDS011;13160;51.834;4.706;2022-12-26T07:13:56;11.10;;;4.80;;
25213;SDS011;13160;51.834;4.706;2022-12-26T07:16:25;11.98;;;5.43;;
25213;SDS011;13160;51.834;4.706;2022-12-26T07:18:54;12.10;;;4.90;;
25213;SDS011;13160;51.834;4.706;2022-12-26T07:21:25;13.07;;;4.78;;
25213;SDS011;13160;51.834;4.706;2022-12-26T07:23:55;12.05;;;4.55;;
25213;SDS011;13160;51.834;4.706;2022-12-26T07:26:24;13.85;;;6.03;;
25213;SDS011;13160;51.834;4.706;2022-12-26T07:28:53;10.70;;;6.63;;
25213;SDS011;13160;51.834;4.706;2022-12-26T07:31:21;9.43;;;5.72;;
25213;SDS011;13160;51.834;4.706;2022-12-26T07:33:54;13.73;;;5.55;;
25213;SDS011;13160;51.834;4.706;2022-12-26T07:36:23;12.05;;;5.97;;
25213;SDS011;13160;51.834;4.706;2022-12-26T07:38:53;20.20;;;5.25;;
25213;SDS011;13160;51.834;4.706;2022-12-26T07:41:21;16.65;;;5.13;;
25213;SDS011;13160;51.834;4.706;2022-12-26T07:44:08;10.18;;;5.05;;
25213;SDS011;13160;51.834;4.706;2022-12-26T07:46:37;13.82;;;5.15;;
25213;SDS011;13160;51.834;4.706;2022-12-26T07:49:09;13.68;;;4.85;;
25213;SDS011;13160;51.834;4.706;2022-12-26T07:54:10;13.23;;;6.47;;
25213;SDS011;13160;51.834;4.706;2022-12-26T07:56:39;11.10;;;5.55;;
25213;SDS011;13160;51.834;4.706;2022-12-26T07:59:10;13.50;;;5.60;;
25213;SDS011;13160;51.834;4.706;2022-12-26T08:01:40;10.98;;;5.25;;
25213;SDS011;13160;51.834;4.706;2022-12-26T08:04:10;13.82;;;5.47;;
25213;SDS011;13160;51.834;4.706;2022-12-26T08:06:40;12.30;;;5.72;;
25213;SDS011;13160;51.834;4.706;2022-12-26T08:09:12;9.32;;;5.28;;
25213;SDS011;13160;51.834;4.706;2022-12-26T08:11:42;11.18;;;5.88;;
25213;SDS011;13160;51.834;4.706;2022-12-26T08:14:15;17.10;;;7.10;;
25213;SDS011;13160;51.834;4.706;2022-12-26T08:16:43;13.43;;;5.57;;
25213;SDS011;13160;51.834;4.706;2022-12-26T08:19:18;11.13;;;6.03;;
25213;SDS011;13160;51.834;4.706;2022-12-26T08:21:48;14.55;;;5.25;;
25213;SDS011;13160;51.834;4.706;2022-12-26T08:24:17;11.70;;;4.63;;
25213;SDS011;13160;51.834;4.706;2022-12-26T08:26:45;12.32;;;4.68;;
25213;SDS011;13160;51.834;4.706;2022-12-26T08:29:13;11.27;;;4.53;;
25213;SDS011;13160;51.834;4.706;2022-12-26T08:31:42;19.00;;;6.55;;
25213;SDS011;13160;51.834;4.706;2022-12-26T08:34:10;15.63;;;5.95;;
25213;SDS011;13160;51.834;4.706;2022-12-26T08:36:39;12.80;;;4.10;;
25213;SDS011;13160;51.834;4.706;2022-12-26T08:39:09;7.70;;;3.78;;
25213;SDS011;13160;51.834;4.706;2022-12-26T08:41:37;10.32;;;4.32;;
25213;SDS011;13160;51.834;4.706;2022-12-26T08:44:12;10.70;;;3.65;;
25213;SDS011;13160;51.834;4.706;2022-12-26T08:46:56;8.38;;;3.80;;
25213;SDS011;13160;51.834;4.706;2022-12-26T08:49:24;11.85;;;3.80;;
25213;SDS011;13160;51.834;4.706;2022-12-26T08:51:53;9.05;;;3.85;;
25213;SDS011;13160;51.834;4.706;2022-12-26T08:54:22;17.00;;;4.10;;
25213;SDS011;13160;51.834;4.706;2022-12-26T08:56:51;15.93;;;4.32;;
25213;SDS011;13160;51.834;4.706;2022-12-26T08:59:19;9.88;;;4.18;;
25213;SDS011;13160;51.834;4.706;2022-12-26T09:01:48;12.18;;;4.32;;
25213;SDS011;13160;51.834;4.706;2022-12-26T09:04:17;11.48;;;3.90;;
25213;SDS011;13160;51.834;4.706;2022-12-26T09:06:45;11.95;;;3.90;;
25213;SDS011;13160;51.834;4.706;2022-12-26T09:09:13;11.18;;;3.85;;
25213;SDS011;13160;51.834;4.706;2022-12-26T09:11:43;8.75;;;3.80;;
25213;SDS011;13160;51.834;4.706;2022-12-26T09:14:12;10.27;;;3.78;;
25213;SDS011;13160;51.834;4.706;2022-12-26T09:16:41;10.32;;;3.00;;
25213;SDS011;13160;51.834;4.706;2022-12-26T09:19:16;11.52;;;2.78;;
25213;SDS011;13160;51.834;4.706;2022-12-26T09:21:46;8.35;;;2.53;;
25213;SDS011;13160;51.834;4.706;2022-12-26T09:24:37;10.55;;;2.33;;
25213;SDS011;13160;51.834;4.706;2022-12-26T09:27:08;10.80;;;2.15;;
25213;SDS011;13160;51.834;4.706;2022-12-26T09:29:37;16.67;;;2.40;;
25213;SDS011;13160;51.834;4.706;2022-12-26T09:32:06;17.73;;;2.78;;
25213;SDS011;13160;51.834;4.706;2022-12-26T09:34:34;11.93;;;2.72;;
25213;SDS011;13160;51.834;4.706;2022-12-26T09:37:03;15.60;;;2.55;;
25213;SDS011;13160;51.834;4.706;2022-12-26T09:39:31;16.55;;;3.40;;
25213;SDS011;13160;51.834;4.706;2022-12-26T09:42:02;17.20;;;3.78;;
25213;SDS011;13160;51.834;4.706;2022-12-26T09:44:47;15.75;;;3.25;;
25213;SDS011;13160;51.834;4.706;2022-12-26T09:47:31;13.85;;;3.70;;
25213;SDS011;13160;51.834;4.706;2022-12-26T09:50:03;18.48;;;2.80;;
25213;SDS011;13160;51.834;4.706;2022-12-26T09:52:40;18.48;;;2.90;;
25213;SDS011;13160;51.834;4.706;2022-12-26T09:55:17;18.88;;;3.17;;
25213;SDS011;13160;51.834;4.706;2022-12-26T09:57:57;25.52;;;3.50;;
25213;SDS011;13160;51.834;4.706;2022-12-26T10:00:32;14.82;;;3.15;;
25213;SDS011;13160;51.834;4.706;2022-12-26T10:03:10;19.00;;;3.13;;
25213;SDS011;13160;51.834;4.706;2022-12-26T10:05:39;17.00;;;2.65;;
25213;SDS011;13160;51.834;4.706;2022-12-26T10:08:32;13.57;;;2.85;;
25213;SDS011;13160;51.834;4.706;2022-12-26T10:11:27;12.85;;;2.40;;
25213;SDS011;13160;51.834;4.706;2022-12-26T10:14:07;14.52;;;2.83;;
25213;SDS011;13160;51.834;4.706;2022-12-26T10:16:49;11.85;;;2.33;;
25213;SDS011;13160;51.834;4.706;2022-12-26T10:19:30;7.57;;;1.60;;
25213;SDS011;13160;51.834;4.706;2022-12-26T10:22:27;14.50;;;2.28;;
25213;SDS011;13160;51.834;4.706;2022-12-26T10:25:17;19.70;;;2.15;;
25213;SDS011;13160;51.834;4.706;2022-12-26T10:27:58;12.50;;;1.95;;
25213;SDS011;13160;51.834;4.706;2022-12-26T10:30:34;12.35;;;2.38;;
25213;SDS011;13160;51.834;4.706;2022-12-26T10:33:10;16.85;;;2.50;;
25213;SDS011;13160;51.834;4.706;2022-12-26T10:35:51;7.95;;;1.52;;
25213;SDS011;13160;51.834;4.706;2022-12-26T10:38:22;11.15;;;2.20;;
25213;SDS011;13160;51.834;4.706;2022-12-26T10:41:02;10.45;;;2.15;;
25213;SDS011;13160;51.834;4.706;2022-12-26T10:43:37;14.18;;;1.80;;
25213;SDS011;13160;51.834;4.706;2022-12-26T10:49:19;14.73;;;1.95;;
25213;SDS011;13160;51.834;4.706;2022-12-26T10:51:50;11.90;;;1.80;;
25213;SDS011;13160;51.834;4.706;2022-12-26T10:54:22;7.45;;;1.50;;
25213;SDS011;13160;51.834;4.706;2022-12-26T10:56:50;9.65;;;1.63;;
25213;SDS011;13160;51.834;4.706;2022-12-26T10:59:29;15.70;;;1.90;;
25213;SDS011;13160;51.834;4.706;2022-12-26T11:02:15;11.80;;;2.40;;
25213;SDS011;13160;51.834;4.706;2022-12-26T11:04:58;9.60;;;1.75;;
25213;SDS011;13160;51.834;4.706;2022-12-26T11:07:53;7.13;;;2.17;;
25213;SDS011;13160;51.834;4.706;2022-12-26T11:10:32;11.43;;;2.45;;
25213;SDS011;13160;51.834;4.706;2022-12-26T11:13:00;10.93;;;2.38;;
25213;SDS011;13160;51.834;4.706;2022-12-26T11:15:34;7.68;;;2.63;;
25213;SDS011;13160;51.834;4.706;2022-12-26T11:18:14;10.90;;;1.75;;
25213;SDS011;13160;51.834;4.706;2022-12-26T11:20:48;10.32;;;2.00;;
25213;SDS011;13160;51.834;4.706;2022-12-26T11:23:19;10.25;;;1.90;;
25213;SDS011;13160;51.834;4.706;2022-12-26T11:25:52;9.60;;;1.90;;
25213;SDS011;13160;51.834;4.706;2022-12-26T11:28:27;18.48;;;2.90;;
25213;SDS011;13160;51.834;4.706;2022-12-26T11:30:59;14.32;;;3.38;;
25213;SDS011;13160;51.834;4.706;2022-12-26T11:33:32;10.32;;;2.80;;
25213;SDS011;13160;51.834;4.706;2022-12-26T11:36:09;10.15;;;3.22;;
25213;SDS011;13160;51.834;4.706;2022-12-26T11:38:46;8.18;;;2.53;;
25213;SDS011;13160;51.834;4.706;2022-12-26T11:41:29;9.98;;;2.03;;
25213;SDS011;13160;51.834;4.706;2022-12-26T11:44:17;10.32;;;2.03;;
25213;SDS011;13160;51.834;4.706;2022-12-26T11:46:52;9.52;;;1.80;;
25213;SDS011;13160;51.834;4.706;2022-12-26T11:49:39;12.43;;;1.60;;
25213;SDS011;13160;51.834;4.706;2022-12-26T11:52:32;10.32;;;2.13;;
25213;SDS011;13160;51.834;4.706;2022-12-26T11:57:59;8.00;;;1.67;;
25213;SDS011;13160;51.834;4.706;2022-12-26T12:00:33;9.68;;;1.63;;
25213;SDS011;13160;51.834;4.706;2022-12-26T12:03:08;4.75;;;1.55;;
25213;SDS011;13160;51.834;4.706;2022-12-26T12:05:44;6.30;;;1.80;;
25213;SDS011;13160;51.834;4.706;2022-12-26T12:08:23;8.95;;;1.60;;
25213;SDS011;13160;51.834;4.706;2022-12-26T12:11:04;4.80;;;1.23;;
25213;SDS011;13160;51.834;4.706;2022-12-26T12:13:57;7.80;;;1.55;;
25213;SDS011;13160;51.834;4.706;2022-12-26T12:16:51;3.70;;;1.40;;
25213;SDS011;13160;51.834;4.706;2022-12-26T12:19:36;8.73;;;1.65;;
25213;SDS011;13160;51.834;4.706;2022-12-26T12:25:35;9.18;;;1.55;;
25213;SDS011;13160;51.834;4.706;2022-12-26T12:28:34;7.25;;;1.50;;
25213;SDS011;13160;51.834;4.706;2022-12-26T12:31:38;6.65;;;1.45;;
25213;SDS011;13160;51.834;4.706;2022-12-26T12:34:21;7.75;;;1.50;;
25213;SDS011;13160;51.834;4.706;2022-12-26T12:37:01;4.20;;;1.00;;
25213;SDS011;13160;51.834;4.706;2022-12-26T12:39:46;10.13;;;1.45;;
25213;SDS011;13160;51.834;4.706;2022-12-26T12:42:32;3.45;;;1.27;;
25213;SDS011;13160;51.834;4.706;2022-12-26T12:45:22;7.25;;;2.17;;
25213;SDS011;13160;51.834;4.706;2022-12-26T12:48:13;4.50;;;1.58;;
25213;SDS011;13160;51.834;4.706;2022-12-26T12:50:58;6.53;;;1.83;;
25213;SDS011;13160;51.834;4.706;2022-12-26T12:53:44;5.18;;;1.67;;
25213;SDS011;13160;51.834;4.706;2022-12-26T12:56:44;6.45;;;1.33;;
25213;SDS011;13160;51.834;4.706;2022-12-26T12:59:25;3.88;;;1.35;;
25213;SDS011;13160;51.834;4.706;2022-12-26T13:02:05;6.00;;;1.88;;
25213;SDS011;13160;51.834;4.706;2022-12-26T13:04:46;7.53;;;1.67;;
25213;SDS011;13160;51.834;4.706;2022-12-26T13:07:24;7.78;;;1.50;;
25213;SDS011;13160;51.834;4.706;2022-12-26T13:09:59;7.35;;;1.60;;
25213;SDS011;13160;51.834;4.706;2022-12-26T13:12:31;5.22;;;1.73;;
25213;SDS011;13160;51.834;4.706;2022-12-26T13:15:13;6.15;;;1.73;;
25213;SDS011;13160;51.834;4.706;2022-12-26T13:17:53;9.00;;;2.72;;
25213;SDS011;13160;51.834;4.706;2022-12-26T13:20:31;4.95;;;1.67;;
25213;SDS011;13160;51.834;4.706;2022-12-26T13:23:09;5.07;;;1.50;;
25213;SDS011;13160;51.834;4.706;2022-12-26T13:26:04;7.80;;;1.38;;
25213;SDS011;13160;51.834;4.706;2022-12-26T13:31:31;8.13;;;1.75;;
25213;SDS011;13160;51.834;4.706;2022-12-26T13:34:02;6.85;;;1.35;;
25213;SDS011;13160;51.834;4.706;2022-12-26T13:36:36;5.40;;;1.70;;
25213;SDS011;13160;51.834;4.706;2022-12-26T13:42:17;6.47;;;1.77;;
25213;SDS011;13160;51.834;4.706;2022-12-26T13:54:18;5.85;;;1.65;;
25213;SDS011;13160;51.834;4.706;2022-12-26T14:03:15;13.38;;;1.42;;
25213;SDS011;13160;51.834;4.706;2022-12-26T14:06:25;6.50;;;1.38;;
25213;SDS011;13160;51.834;4.706;2022-12-26T14:09:20;8.05;;;2.30;;
25213;SDS011;13160;51.834;4.706;2022-12-26T14:18:23;9.60;;;2.30;;
25213;SDS011;13160;51.834;4.706;2022-12-26T14:21:16;8.45;;;1.75;;
25213;SDS011;13160;51.834;4.706;2022-12-26T14:24:24;9.68;;;2.35;;
25213;SDS011;13160;51.834;4.706;2022-12-26T14:27:17;6.45;;;1.42;;
25213;SDS011;13160;51.834;4.706;2022-12-26T14:30:04;11.70;;;1.85;;
25213;SDS011;13160;51.834;4.706;2022-12-26T14:32:51;9.40;;;1.48;;
25213;SDS011;13160;51.834;4.706;2022-12-26T14:35:36;7.90;;;1.85;;
25213;SDS011;13160;51.834;4.706;2022-12-26T14:38:20;11.73;;;2.53;;
25213;SDS011;13160;51.834;4.706;2022-12-26T14:41:00;11.10;;;2.65;;
25213;SDS011;13160;51.834;4.706;2022-12-26T14:43:33;12.35;;;4.38;;
25213;SDS011;13160;51.834;4.706;2022-12-26T14:46:04;8.45;;;1.92;;
25213;SDS011;13160;51.834;4.706;2022-12-26T14:48:54;14.75;;;3.75;;
25213;SDS011;13160;51.834;4.706;2022-12-26T14:51:30;9.15;;;2.33;;
25213;SDS011;13160;51.834;4.706;2022-12-26T15:00:12;10.40;;;2.72;;
25213;SDS011;13160;51.834;4.706;2022-12-26T15:06:22;12.38;;;4.30;;
25213;SDS011;13160;51.834;4.706;2022-12-26T15:16:19;10.13;;;2.90;;
25213;SDS011;13160;51.834;4.706;2022-12-26T15:22:39;10.75;;;3.10;;
25213;SDS011;13160;51.834;4.706;2022-12-26T15:32:07;7.05;;;2.38;;
25213;SDS011;13160;51.834;4.706;2022-12-26T15:34:41;7.60;;;2.38;;
25213;SDS011;13160;51.834;4.706;2022-12-26T15:37:27;10.88;;;5.28;;
25213;SDS011;13160;51.834;4.706;2022-12-26T15:40:11;18.35;;;3.38;;
25213;SDS011;13160;51.834;4.706;2022-12-26T15:42:46;12.80;;;4.72;;
25213;SDS011;13160;51.834;4.706;2022-12-26T15:45:45;21.92;;;9.38;;
25213;SDS011;13160;51.834;4.706;2022-12-26T15:48:24;11.48;;;4.10;;
25213;SDS011;13160;51.834;4.706;2022-12-26T15:51:06;13.43;;;8.00;;
25213;SDS011;13160;51.834;4.706;2022-12-26T15:53:43;14.98;;;3.47;;
25213;SDS011;13160;51.834;4.706;2022-12-26T15:56:42;18.85;;;11.07;;
25213;SDS011;13160;51.834;4.706;2022-12-26T16:02:36;15.63;;;5.10;;
25213;SDS011;13160;51.834;4.706;2022-12-26T16:08:15;15.27;;;5.10;;
25213;SDS011;13160;51.834;4.706;2022-12-26T16:11:41;12.93;;;2.20;;
25213;SDS011;13160;51.834;4.706;2022-12-26T16:14:26;16.40;;;4.45;;
25213;SDS011;13160;51.834;4.706;2022-12-26T16:17:18;13.40;;;4.65;;
25213;SDS011;13160;51.834;4.706;2022-12-26T16:19:52;10.90;;;2.72;;
25213;SDS011;13160;51.834;4.706;2022-12-26T16:22:24;10.77;;;2.55;;
25213;SDS011;13160;51.834;4.706;2022-12-26T16:25:09;20.40;;;7.88;;
25213;SDS011;13160;51.834;4.706;2022-12-26T16:27:41;16.60;;;3.38;;
25213;SDS011;13160;51.834;4.706;2022-12-26T16:30:13;14.18;;;2.97;;
25213;SDS011;13160;51.834;4.706;2022-12-26T16:32:44;17.58;;;3.70;;
25213;SDS011;13160;51.834;4.706;2022-12-26T16:35:17;16.10;;;3.00;;
25213;SDS011;13160;51.834;4.706;2022-12-26T16:37:48;14.57;;;2.75;;
25213;SDS011;13160;51.834;4.706;2022-12-26T16:40:19;17.42;;;2.67;;
25213;SDS011;13160;51.834;4.706;2022-12-26T16:43:03;14.38;;;3.50;;
25213;SDS011;13160;51.834;4.706;2022-12-26T16:45:36;14.57;;;4.80;;
25213;SDS011;13160;51.834;4.706;2022-12-26T16:48:06;13.63;;;3.72;;
25213;SDS011;13160;51.834;4.706;2022-12-26T16:50:48;16.45;;;3.17;;
25213;SDS011;13160;51.834;4.706;2022-12-26T16:53:20;15.68;;;4.10;;
25213;SDS011;13160;51.834;4.706;2022-12-26T16:55:50;9.98;;;2.55;;
25213;SDS011;13160;51.834;4.706;2022-12-26T16:58:24;14.00;;;2.58;;
25213;SDS011;13160;51.834;4.706;2022-12-26T17:01:00;13.60;;;2.70;;